sensor_id;sensor_type;location;lat;lon;timestamp;temperature;humidity
36424;DHT22;22458;45.328;9.514;2022-10-30T00:00:35;17.20;99.90
36424;DHT22;22458;45.328;9.514;2022-10-30T00:03:01;17.20;99.90
36424;DHT22;22458;45.328;9.514;2022-10-30T00:05:27;17.20;99.90
36424;DHT22;22458;45.328;9.514;2022-10-30T00:07:56;17.20;99.90
36424;DHT22;22458;45.328;9.514;2022-10-30T00:10:23;17.10;99.90
36424;DHT22;22458;45.328;9.514;2022-10-30T00:12:49;17.30;99.90
36424;DHT22;22458;45.328;9.514;2022-10-30T00:15:14;17.10;99.90
36424;DHT22;22458;45.328;9.514;2022-10-30T00:17:40;17.00;99.90
36424;DHT22;22458;45.328;9.514;2022-10-30T00:20:06;17.10;99.90
36424;DHT22;22458;45.328;9.514;2022-10-30T00:22:34;17.00;99.90
36424;DHT22;22458;45.328;9.514;2022-10-30T00:25:01;17.00;99.90
36424;DHT22;22458;45.328;9.514;2022-10-30T00:27:26;16.90;99.90
36424;DHT22;22458;45.328;9.514;2022-10-30T00:29:52;16.90;99.90
36424;DHT22;22458;45.328;9.514;2022-10-30T00:32:18;16.90;99.90
36424;DHT22;22458;45.328;9.514;2022-10-30T00:34:44;16.90;99.90
36424;DHT22;22458;45.328;9.514;2022-10-30T00:37:09;16.90;99.90
36424;DHT22;22458;45.328;9.514;2022-10-30T00:39:38;16.80;99.90
36424;DHT22;22458;45.328;9.514;2022-10-30T00:42:04;16.80;99.90
36424;DHT22;22458;45.328;9.514;2022-10-30T00:44:50;16.70;99.90
36424;DHT22;22458;45.328;9.514;2022-10-30T00:47:38;16.80;99.90
36424;DHT22;22458;45.328;9.514;2022-10-30T00:50:18;16.80;99.90
36424;DHT22;22458;45.328;9.514;2022-10-30T00:53:11;16.70;99.90
36424;DHT22;22458;45.328;9.514;2022-10-30T00:55:47;16.70;99.90
36424;DHT22;22458;45.328;9.514;2022-10-30T00:58:17;16.70;99.90
36424;DHT22;22458;45.328;9.514;2022-10-30T01:00:49;16.70;99.90
36424;DHT22;22458;45.328;9.514;2022-10-30T01:03:17;16.70;99.90
36424;DHT22;22458;45.328;9.514;2022-10-30T01:05:45;16.60;99.90
36424;DHT22;22458;45.328;9.514;2022-10-30T01:08:13;16.60;99.90
36424;DHT22;22458;45.328;9.514;2022-10-30T01:10:38;16.60;99.90
36424;DHT22;22458;45.328;9.514;2022-10-30T01:13:05;16.60;99.90
36424;DHT22;22458;45.328;9.514;2022-10-30T01:15:35;16.50;99.90
36424;DHT22;22458;45.328;9.514;2022-10-30T01:18:19;16.60;99.90
36424;DHT22;22458;45.328;9.514;2022-10-30T01:21:32;16.60;99.90
36424;DHT22;22458;45.328;9.514;2022-10-30T01:26:45;16.50;99.90
36424;DHT22;22458;45.328;9.514;2022-10-30T01:29:25;16.50;99.90
36424;DHT22;22458;45.328;9.514;2022-10-30T01:39:54;16.40;99.90
36424;DHT22;22458;45.328;9.514;2022-10-30T01:42:43;16.40;99.90
36424;DHT22;22458;45.328;9.514;2022-10-30T01:51:20;16.30;99.90
36424;DHT22;22458;45.328;9.514;2022-10-30T01:57:53;16.20;99.90
36424;DHT22;22458;45.328;9.514;2022-10-30T01:59:51;16.20;99.90
36424;DHT22;22458;45.328;9.514;2022-10-30T02:02:20;16.20;99.90
36424;DHT22;22458;45.328;9.514;2022-10-30T02:04:46;16.20;99.90
36424;DHT22;22458;45.328;9.514;2022-10-30T02:07:12;16.20;99.90
36424;DHT22;22458;45.328;9.514;2022-10-30T02:09:44;16.10;99.90
36424;DHT22;22458;45.328;9.514;2022-10-30T02:12:12;16.10;99.90
36424;DHT22;22458;45.328;9.514;2022-10-30T02:14:41;16.00;99.90
36424;DHT22;22458;45.328;9.514;2022-10-30T02:17:09;16.00;99.90
36424;DHT22;22458;45.328;9.514;2022-10-30T02:19:36;16.00;99.90
36424;DHT22;22458;45.328;9.514;2022-10-30T02:22:03;16.00;99.90
36424;DHT22;22458;45.328;9.514;2022-10-30T02:24:30;16.00;99.90
36424;DHT22;22458;45.328;9.514;2022-10-30T02:26:56;16.00;99.90
36424;DHT22;22458;45.328;9.514;2022-10-30T02:29:22;16.00;99.90
36424;DHT22;22458;45.328;9.514;2022-10-30T02:31:48;16.00;99.90
36424;DHT22;22458;45.328;9.514;2022-10-30T02:34:14;16.00;99.90
36424;DHT22;22458;45.328;9.514;2022-10-30T02:36:40;16.00;99.90
36424;DHT22;22458;45.328;9.514;2022-10-30T02:39:06;16.10;99.90
36424;DHT22;22458;45.328;9.514;2022-10-30T02:41:34;16.00;99.90
36424;DHT22;22458;45.328;9.514;2022-10-30T02:43:59;16.00;99.90
36424;DHT22;22458;45.328;9.514;2022-10-30T02:46:26;16.00;99.90
36424;DHT22;22458;45.328;9.514;2022-10-30T02:48:52;16.00;99.90
36424;DHT22;22458;45.328;9.514;2022-10-30T02:51:17;16.00;99.90
36424;DHT22;22458;45.328;9.514;2022-10-30T02:53:43;16.00;99.90
36424;DHT22;22458;45.328;9.514;2022-10-30T02:56:11;16.10;99.90
36424;DHT22;22458;45.328;9.514;2022-10-30T02:58:39;16.00;99.90
36424;DHT22;22458;45.328;9.514;2022-10-30T03:01:07;16.10;99.90
36424;DHT22;22458;45.328;9.514;2022-10-30T03:03:34;16.10;99.90
36424;DHT22;22458;45.328;9.514;2022-10-30T03:06:01;16.10;99.90
36424;DHT22;22458;45.328;9.514;2022-10-30T03:08:27;16.10;99.90
36424;DHT22;22458;45.328;9.514;2022-10-30T03:11:01;16.10;99.90
36424;DHT22;22458;45.328;9.514;2022-10-30T03:13:29;16.20;99.90
36424;DHT22;22458;45.328;9.514;2022-10-30T03:16:14;16.10;99.90
36424;DHT22;22458;45.328;9.514;2022-10-30T03:18:40;16.10;99.90
36424;DHT22;22458;45.328;9.514;2022-10-30T03:21:11;16.10;99.90
36424;DHT22;22458;45.328;9.514;2022-10-30T03:23:37;16.10;99.90
36424;DHT22;22458;45.328;9.514;2022-10-30T03:26:04;16.10;99.90
36424;DHT22;22458;45.328;9.514;2022-10-30T03:28:35;16.10;99.90
36424;DHT22;22458;45.328;9.514;2022-10-30T03:31:13;16.10;99.90
36424;DHT22;22458;45.328;9.514;2022-10-30T03:33:39;16.10;99.90
36424;DHT22;22458;45.328;9.514;2022-10-30T03:36:07;16.00;99.90
36424;DHT22;22458;45.328;9.514;2022-10-30T03:38:35;16.00;99.90
36424;DHT22;22458;45.328;9.514;2022-10-30T03:41:01;16.00;99.90
36424;DHT22;22458;45.328;9.514;2022-10-30T03:43:28;15.90;99.90
36424;DHT22;22458;45.328;9.514;2022-10-30T03:45:55;16.00;99.90
36424;DHT22;22458;45.328;9.514;2022-10-30T03:48:23;16.00;99.90
36424;DHT22;22458;45.328;9.514;2022-10-30T03:50:51;15.90;99.90
36424;DHT22;22458;45.328;9.514;2022-10-30T03:53:19;15.90;99.90
36424;DHT22;22458;45.328;9.514;2022-10-30T03:55:45;15.90;99.90
36424;DHT22;22458;45.328;9.514;2022-10-30T03:58:11;16.00;99.90
36424;DHT22;22458;45.328;9.514;2022-10-30T04:00:37;16.00;99.90
36424;DHT22;22458;45.328;9.514;2022-10-30T04:03:06;16.00;99.90
36424;DHT22;22458;45.328;9.514;2022-10-30T04:05:32;16.00;99.90
36424;DHT22;22458;45.328;9.514;2022-10-30T04:08:00;16.00;99.90
36424;DHT22;22458;45.328;9.514;2022-10-30T04:10:29;16.10;99.90
36424;DHT22;22458;45.328;9.514;2022-10-30T04:13:01;16.00;99.90
36424;DHT22;22458;45.328;9.514;2022-10-30T04:15:28;16.00;99.90
36424;DHT22;22458;45.328;9.514;2022-10-30T04:17:54;16.00;99.90
36424;DHT22;22458;45.328;9.514;2022-10-30T04:20:21;16.00;99.90
36424;DHT22;22458;45.328;9.514;2022-10-30T04:22:47;15.90;99.90
36424;DHT22;22458;45.328;9.514;2022-10-30T04:25:18;15.90;99.90
36424;DHT22;22458;45.328;9.514;2022-10-30T04:27:48;15.90;99.90
36424;DHT22;22458;45.328;9.514;2022-10-30T04:30:14;15.90;99.90
36424;DHT22;22458;45.328;9.514;2022-10-30T04:32:49;16.00;99.90
36424;DHT22;22458;45.328;9.514;2022-10-30T04:35:17;16.00;99.90
36424;DHT22;22458;45.328;9.514;2022-10-30T04:37:54;15.90;99.90
36424;DHT22;22458;45.328;9.514;2022-10-30T04:40:21;15.90;99.90
36424;DHT22;22458;45.328;9.514;2022-10-30T04:42:53;15.90;99.90
36424;DHT22;22458;45.328;9.514;2022-10-30T04:45:19;15.90;99.90
36424;DHT22;22458;45.328;9.514;2022-10-30T04:47:46;15.90;99.90
36424;DHT22;22458;45.328;9.514;2022-10-30T04:50:12;15.90;99.90
36424;DHT22;22458;45.328;9.514;2022-10-30T04:52:38;16.00;99.90
36424;DHT22;22458;45.328;9.514;2022-10-30T04:55:05;16.00;99.90
36424;DHT22;22458;45.328;9.514;2022-10-30T04:57:32;16.10;99.90
36424;DHT22;22458;45.328;9.514;2022-10-30T04:59:59;16.20;99.90
36424;DHT22;22458;45.328;9.514;2022-10-30T05:02:25;16.20;99.90
36424;DHT22;22458;45.328;9.514;2022-10-30T05:04:51;16.20;99.90
36424;DHT22;22458;45.328;9.514;2022-10-30T05:07:17;16.20;99.90
36424;DHT22;22458;45.328;9.514;2022-10-30T05:09:43;16.30;99.90
36424;DHT22;22458;45.328;9.514;2022-10-30T05:12:09;16.20;99.90
36424;DHT22;22458;45.328;9.514;2022-10-30T05:14:46;16.10;99.90
36424;DHT22;22458;45.328;9.514;2022-10-30T05:17:12;16.10;99.90
36424;DHT22;22458;45.328;9.514;2022-10-30T05:19:37;16.00;99.90
36424;DHT22;22458;45.328;9.514;2022-10-30T05:22:04;15.90;99.90
36424;DHT22;22458;45.328;9.514;2022-10-30T05:24:30;15.90;99.90
36424;DHT22;22458;45.328;9.514;2022-10-30T05:26:56;15.80;99.90
36424;DHT22;22458;45.328;9.514;2022-10-30T05:29:22;15.70;99.90
36424;DHT22;22458;45.328;9.514;2022-10-30T05:31:48;15.70;99.90
36424;DHT22;22458;45.328;9.514;2022-10-30T05:34:14;15.70;99.90
36424;DHT22;22458;45.328;9.514;2022-10-30T05:36:41;15.70;99.90
36424;DHT22;22458;45.328;9.514;2022-10-30T05:39:08;15.80;99.90
36424;DHT22;22458;45.328;9.514;2022-10-30T05:41:36;15.90;99.90
36424;DHT22;22458;45.328;9.514;2022-10-30T05:44:03;16.00;99.90
36424;DHT22;22458;45.328;9.514;2022-10-30T05:46:29;16.00;99.90
36424;DHT22;22458;45.328;9.514;2022-10-30T05:49:04;15.90;99.90
36424;DHT22;22458;45.328;9.514;2022-10-30T05:51:30;15.90;99.90
36424;DHT22;22458;45.328;9.514;2022-10-30T05:54:03;15.90;99.90
36424;DHT22;22458;45.328;9.514;2022-10-30T05:56:30;16.00;99.90
36424;DHT22;22458;45.328;9.514;2022-10-30T05:58:57;16.00;99.90
36424;DHT22;22458;45.328;9.514;2022-10-30T06:01:22;16.00;99.90
36424;DHT22;22458;45.328;9.514;2022-10-30T06:03:52;16.00;99.90
36424;DHT22;22458;45.328;9.514;2022-10-30T06:06:19;16.10;99.90
36424;DHT22;22458;45.328;9.514;2022-10-30T06:08:45;16.10;99.90
36424;DHT22;22458;45.328;9.514;2022-10-30T06:11:43;16.00;99.90
36424;DHT22;22458;45.328;9.514;2022-10-30T06:14:12;16.00;99.90
36424;DHT22;22458;45.328;9.514;2022-10-30T06:16:44;16.00;99.90
36424;DHT22;22458;45.328;9.514;2022-10-30T06:19:22;16.00;99.90
36424;DHT22;22458;45.328;9.514;2022-10-30T06:21:50;16.10;99.90
36424;DHT22;22458;45.328;9.514;2022-10-30T06:24:36;16.10;99.90
36424;DHT22;22458;45.328;9.514;2022-10-30T06:27:38;16.10;99.90
36424;DHT22;22458;45.328;9.514;2022-10-30T06:30:04;16.00;99.90
36424;DHT22;22458;45.328;9.514;2022-10-30T06:32:30;15.90;99.90
36424;DHT22;22458;45.328;9.514;2022-10-30T06:34:56;15.90;99.90
36424;DHT22;22458;45.328;9.514;2022-10-30T06:37:23;15.90;99.90
36424;DHT22;22458;45.328;9.514;2022-10-30T06:39:48;16.00;99.90
36424;DHT22;22458;45.328;9.514;2022-10-30T06:42:44;16.00;99.90
36424;DHT22;22458;45.328;9.514;2022-10-30T06:45:24;16.10;99.90
36424;DHT22;22458;45.328;9.514;2022-10-30T06:47:50;16.00;99.90
36424;DHT22;22458;45.328;9.514;2022-10-30T06:50:19;15.90;99.90
36424;DHT22;22458;45.328;9.514;2022-10-30T06:52:45;15.80;99.90
36424;DHT22;22458;45.328;9.514;2022-10-30T06:55:11;15.70;99.90
36424;DHT22;22458;45.328;9.514;2022-10-30T06:57:57;15.80;99.90
36424;DHT22;22458;45.328;9.514;2022-10-30T07:00:45;15.80;99.90
36424;DHT22;22458;45.328;9.514;2022-10-30T07:03:33;15.90;99.90
36424;DHT22;22458;45.328;9.514;2022-10-30T07:05:59;15.90;99.90
36424;DHT22;22458;45.328;9.514;2022-10-30T07:08:25;15.90;99.90
36424;DHT22;22458;45.328;9.514;2022-10-30T07:10:51;16.00;99.90
36424;DHT22;22458;45.328;9.514;2022-10-30T07:13:46;16.10;99.90
36424;DHT22;22458;45.328;9.514;2022-10-30T07:16:32;16.10;99.90
36424;DHT22;22458;45.328;9.514;2022-10-30T07:18:59;16.20;99.90
36424;DHT22;22458;45.328;9.514;2022-10-30T07:21:25;16.20;99.90
36424;DHT22;22458;45.328;9.514;2022-10-30T07:23:51;16.20;99.90
36424;DHT22;22458;45.328;9.514;2022-10-30T07:26:37;16.20;99.90
36424;DHT22;22458;45.328;9.514;2022-10-30T07:29:27;16.20;99.90
36424;DHT22;22458;45.328;9.514;2022-10-30T07:32:17;16.30;99.90
36424;DHT22;22458;45.328;9.514;2022-10-30T07:35:02;16.40;99.90
36424;DHT22;22458;45.328;9.514;2022-10-30T07:37:54;16.40;99.90
36424;DHT22;22458;45.328;9.514;2022-10-30T07:40:26;16.40;99.90
36424;DHT22;22458;45.328;9.514;2022-10-30T07:43:05;16.40;99.90
36424;DHT22;22458;45.328;9.514;2022-10-30T07:45:36;16.50;99.90
36424;DHT22;22458;45.328;9.514;2022-10-30T07:48:25;16.60;99.90
36424;DHT22;22458;45.328;9.514;2022-10-30T07:51:09;16.40;99.90
36424;DHT22;22458;45.328;9.514;2022-10-30T07:53:36;16.30;99.90
36424;DHT22;22458;45.328;9.514;2022-10-30T07:56:03;16.20;99.90
36424;DHT22;22458;45.328;9.514;2022-10-30T07:58:48;16.20;99.90
36424;DHT22;22458;45.328;9.514;2022-10-30T08:01:35;16.20;99.90
36424;DHT22;22458;45.328;9.514;2022-10-30T08:04:19;16.30;99.90
36424;DHT22;22458;45.328;9.514;2022-10-30T08:06:46;16.30;99.90
36424;DHT22;22458;45.328;9.514;2022-10-30T08:09:12;16.40;99.90
36424;DHT22;22458;45.328;9.514;2022-10-30T08:11:38;16.50;99.90
36424;DHT22;22458;45.328;9.514;2022-10-30T08:14:04;16.60;99.90
36424;DHT22;22458;45.328;9.514;2022-10-30T08:16:30;16.70;99.90
36424;DHT22;22458;45.328;9.514;2022-10-30T08:18:56;16.70;99.90
36424;DHT22;22458;45.328;9.514;2022-10-30T08:21:24;16.70;99.90
36424;DHT22;22458;45.328;9.514;2022-10-30T08:23:57;16.80;99.90
36424;DHT22;22458;45.328;9.514;2022-10-30T08:26:26;16.90;99.90
36424;DHT22;22458;45.328;9.514;2022-10-30T08:28:52;16.90;99.90
36424;DHT22;22458;45.328;9.514;2022-10-30T08:31:18;17.00;99.90
36424;DHT22;22458;45.328;9.514;2022-10-30T08:34:02;17.00;99.90
36424;DHT22;22458;45.328;9.514;2022-10-30T08:36:34;17.10;99.90
36424;DHT22;22458;45.328;9.514;2022-10-30T08:39:01;17.20;99.90
36424;DHT22;22458;45.328;9.514;2022-10-30T08:41:46;17.20;99.90
36424;DHT22;22458;45.328;9.514;2022-10-30T08:44:12;17.30;99.90
36424;DHT22;22458;45.328;9.514;2022-10-30T08:47:10;17.40;99.90
36424;DHT22;22458;45.328;9.514;2022-10-30T08:49:37;17.50;99.90
36424;DHT22;22458;45.328;9.514;2022-10-30T08:52:07;17.60;99.90
36424;DHT22;22458;45.328;9.514;2022-10-30T08:54:33;17.70;99.90
36424;DHT22;22458;45.328;9.514;2022-10-30T08:57:00;17.80;99.90
36424;DHT22;22458;45.328;9.514;2022-10-30T08:59:25;17.90;99.90
36424;DHT22;22458;45.328;9.514;2022-10-30T09:01:53;18.00;99.90
36424;DHT22;22458;45.328;9.514;2022-10-30T09:04:19;18.10;99.90
36424;DHT22;22458;45.328;9.514;2022-10-30T09:06:48;18.20;99.90
36424;DHT22;22458;45.328;9.514;2022-10-30T09:09:22;18.40;99.90
36424;DHT22;22458;45.328;9.514;2022-10-30T09:11:51;18.50;99.90
36424;DHT22;22458;45.328;9.514;2022-10-30T09:14:17;18.60;99.90
36424;DHT22;22458;45.328;9.514;2022-10-30T09:16:43;18.70;99.90
36424;DHT22;22458;45.328;9.514;2022-10-30T09:19:09;18.70;99.90
36424;DHT22;22458;45.328;9.514;2022-10-30T09:21:35;18.80;99.90
36424;DHT22;22458;45.328;9.514;2022-10-30T09:24:01;18.90;99.90
36424;DHT22;22458;45.328;9.514;2022-10-30T09:26:33;19.00;99.90
36424;DHT22;22458;45.328;9.514;2022-10-30T09:29:19;19.00;99.90
36424;DHT22;22458;45.328;9.514;2022-10-30T09:31:59;19.10;99.90
36424;DHT22;22458;45.328;9.514;2022-10-30T09:34:29;19.20;99.90
36424;DHT22;22458;45.328;9.514;2022-10-30T09:37:14;19.40;99.90
36424;DHT22;22458;45.328;9.514;2022-10-30T09:39:43;19.60;99.90
36424;DHT22;22458;45.328;9.514;2022-10-30T09:42:31;19.70;99.90
36424;DHT22;22458;45.328;9.514;2022-10-30T09:48:23;19.80;99.90
36424;DHT22;22458;45.328;9.514;2022-10-30T09:51:35;19.80;99.90
36424;DHT22;22458;45.328;9.514;2022-10-30T09:54:39;20.00;99.90
36424;DHT22;22458;45.328;9.514;2022-10-30T09:57:17;20.10;99.90
36424;DHT22;22458;45.328;9.514;2022-10-30T10:00:08;20.10;99.90
36424;DHT22;22458;45.328;9.514;2022-10-30T10:08:09;20.40;99.90
36424;DHT22;22458;45.328;9.514;2022-10-30T10:11:20;20.50;99.90
36424;DHT22;22458;45.328;9.514;2022-10-30T10:13:57;20.70;99.90
36424;DHT22;22458;45.328;9.514;2022-10-30T10:16:30;20.80;99.90
36424;DHT22;22458;45.328;9.514;2022-10-30T10:19:20;20.80;99.90
36424;DHT22;22458;45.328;9.514;2022-10-30T10:21:56;20.90;99.90
36424;DHT22;22458;45.328;9.514;2022-10-30T10:41:07;21.40;98.90
36424;DHT22;22458;45.328;9.514;2022-10-30T10:43:43;21.60;98.70
36424;DHT22;22458;45.328;9.514;2022-10-30T10:51:42;21.80;98.20
36424;DHT22;22458;45.328;9.514;2022-10-30T10:56:45;22.00;98.10
36424;DHT22;22458;45.328;9.514;2022-10-30T10:59:15;21.90;98.00
36424;DHT22;22458;45.328;9.514;2022-10-30T11:01:50;22.00;98.00
36424;DHT22;22458;45.328;9.514;2022-10-30T11:04:26;22.10;97.90
36424;DHT22;22458;45.328;9.514;2022-10-30T11:06:54;22.20;97.80
36424;DHT22;22458;45.328;9.514;2022-10-30T11:09:22;22.20;97.70
36424;DHT22;22458;45.328;9.514;2022-10-30T11:11:50;22.20;97.60
36424;DHT22;22458;45.328;9.514;2022-10-30T11:14:29;22.30;97.40
36424;DHT22;22458;45.328;9.514;2022-10-30T11:19:38;22.30;97.20
36424;DHT22;22458;45.328;9.514;2022-10-30T11:22:26;22.40;97.20
36424;DHT22;22458;45.328;9.514;2022-10-30T11:24:53;22.50;97.20
36424;DHT22;22458;45.328;9.514;2022-10-30T11:27:26;22.50;97.20
36424;DHT22;22458;45.328;9.514;2022-10-30T11:32:25;22.70;96.90
36424;DHT22;22458;45.328;9.514;2022-10-30T11:37:36;22.80;96.50
36424;DHT22;22458;45.328;9.514;2022-10-30T11:40:22;22.80;96.50
36424;DHT22;22458;45.328;9.514;2022-10-30T11:45:23;23.10;96.20
36424;DHT22;22458;45.328;9.514;2022-10-30T11:47:49;23.20;96.10
36424;DHT22;22458;45.328;9.514;2022-10-30T11:50:23;23.10;95.80
36424;DHT22;22458;45.328;9.514;2022-10-30T11:53:00;23.20;95.60
36424;DHT22;22458;45.328;9.514;2022-10-30T11:55:44;23.20;95.60
36424;DHT22;22458;45.328;9.514;2022-10-30T11:58:29;23.30;95.30
36424;DHT22;22458;45.328;9.514;2022-10-30T12:01:27;23.30;95.10
36424;DHT22;22458;45.328;9.514;2022-10-30T12:03:54;23.40;94.90
36424;DHT22;22458;45.328;9.514;2022-10-30T12:09:21;23.40;94.90
36424;DHT22;22458;45.328;9.514;2022-10-30T12:11:48;23.50;94.70
36424;DHT22;22458;45.328;9.514;2022-10-30T12:14:25;23.60;94.60
36424;DHT22;22458;45.328;9.514;2022-10-30T12:16:54;23.70;94.30
36424;DHT22;22458;45.328;9.514;2022-10-30T12:19:22;23.70;94.40
36424;DHT22;22458;45.328;9.514;2022-10-30T12:21:50;23.70;94.30
36424;DHT22;22458;45.328;9.514;2022-10-30T12:24:35;24.50;94.60
36424;DHT22;22458;45.328;9.514;2022-10-30T12:27:09;23.80;96.10
36424;DHT22;22458;45.328;9.514;2022-10-30T12:29:58;23.80;96.00
36424;DHT22;22458;45.328;9.514;2022-10-30T12:32:33;23.80;95.70
36424;DHT22;22458;45.328;9.514;2022-10-30T12:35:20;24.00;95.90
36424;DHT22;22458;45.328;9.514;2022-10-30T12:37:49;24.00;95.80
36424;DHT22;22458;45.328;9.514;2022-10-30T12:40:52;24.10;95.70
36424;DHT22;22458;45.328;9.514;2022-10-30T12:43:27;24.20;95.60
36424;DHT22;22458;45.328;9.514;2022-10-30T12:46:44;24.10;95.60
36424;DHT22;22458;45.328;9.514;2022-10-30T12:49:00;24.20;95.50
36424;DHT22;22458;45.328;9.514;2022-10-30T12:51:34;24.30;95.90
36424;DHT22;22458;45.328;9.514;2022-10-30T12:57:14;24.40;95.30
36424;DHT22;22458;45.328;9.514;2022-10-30T12:59:55;24.40;95.10
36424;DHT22;22458;45.328;9.514;2022-10-30T13:07:58;24.60;95.00
36424;DHT22;22458;45.328;9.514;2022-10-30T13:10:30;24.60;94.90
36424;DHT22;22458;45.328;9.514;2022-10-30T13:13:02;24.60;94.80
36424;DHT22;22458;45.328;9.514;2022-10-30T13:15:30;24.70;94.70
36424;DHT22;22458;45.328;9.514;2022-10-30T13:17:59;24.70;94.70
36424;DHT22;22458;45.328;9.514;2022-10-30T13:20:31;24.80;94.50
36424;DHT22;22458;45.328;9.514;2022-10-30T13:23:18;24.80;94.60
36424;DHT22;22458;45.328;9.514;2022-10-30T13:26:05;24.90;94.40
36424;DHT22;22458;45.328;9.514;2022-10-30T13:28:37;25.00;94.20
36424;DHT22;22458;45.328;9.514;2022-10-30T13:36:35;25.00;94.00
36424;DHT22;22458;45.328;9.514;2022-10-30T13:39:39;25.00;94.00
36424;DHT22;22458;45.328;9.514;2022-10-30T13:47:43;25.00;94.20
36424;DHT22;22458;45.328;9.514;2022-10-30T13:53:19;25.10;94.10
36424;DHT22;22458;45.328;9.514;2022-10-30T13:55:49;25.00;94.00
36424;DHT22;22458;45.328;9.514;2022-10-30T13:58:43;25.00;94.00
36424;DHT22;22458;45.328;9.514;2022-10-30T14:04:01;25.00;93.90
36424;DHT22;22458;45.328;9.514;2022-10-30T14:15:13;25.00;93.90
36424;DHT22;22458;45.328;9.514;2022-10-30T14:20:48;25.00;93.90
36424;DHT22;22458;45.328;9.514;2022-10-30T14:23:27;25.00;94.00
36424;DHT22;22458;45.328;9.514;2022-10-30T14:28:35;25.00;93.90
36424;DHT22;22458;45.328;9.514;2022-10-30T14:33:39;24.90;94.00
36424;DHT22;22458;45.328;9.514;2022-10-30T14:36:16;24.90;93.90
36424;DHT22;22458;45.328;9.514;2022-10-30T14:38:54;24.80;93.90
36424;DHT22;22458;45.328;9.514;2022-10-30T14:41:29;24.90;93.80
36424;DHT22;22458;45.328;9.514;2022-10-30T14:44:11;24.90;93.80
36424;DHT22;22458;45.328;9.514;2022-10-30T14:54:54;24.90;94.00
36424;DHT22;22458;45.328;9.514;2022-10-30T14:57:41;24.80;94.00
36424;DHT22;22458;45.328;9.514;2022-10-30T15:03:04;24.80;94.00
36424;DHT22;22458;45.328;9.514;2022-10-30T15:11:14;24.70;94.30
36424;DHT22;22458;45.328;9.514;2022-10-30T15:13:50;24.70;94.40
36424;DHT22;22458;45.328;9.514;2022-10-30T15:16:18;24.60;94.40
36424;DHT22;22458;45.328;9.514;2022-10-30T15:18:46;24.50;94.30
36424;DHT22;22458;45.328;9.514;2022-10-30T15:21:19;24.50;94.70
36424;DHT22;22458;45.328;9.514;2022-10-30T15:23:49;24.40;94.90
36424;DHT22;22458;45.328;9.514;2022-10-30T15:26:33;24.40;94.90
36424;DHT22;22458;45.328;9.514;2022-10-30T15:28:59;24.40;95.00
36424;DHT22;22458;45.328;9.514;2022-10-30T15:31:27;24.30;95.30
36424;DHT22;22458;45.328;9.514;2022-10-30T15:33:54;24.20;95.50
36424;DHT22;22458;45.328;9.514;2022-10-30T15:36:24;24.20;95.70
36424;DHT22;22458;45.328;9.514;2022-10-30T15:39:19;24.10;95.70
36424;DHT22;22458;45.328;9.514;2022-10-30T15:41:53;24.10;95.70
36424;DHT22;22458;45.328;9.514;2022-10-30T15:44:38;24.20;95.90
36424;DHT22;22458;45.328;9.514;2022-10-30T15:47:17;24.10;95.90
36424;DHT22;22458;45.328;9.514;2022-10-30T15:49:53;24.00;96.10
36424;DHT22;22458;45.328;9.514;2022-10-30T15:52:36;23.90;96.30
36424;DHT22;22458;45.328;9.514;2022-10-30T15:55:08;23.80;96.40
36424;DHT22;22458;45.328;9.514;2022-10-30T15:57:54;23.70;96.50
36424;DHT22;22458;45.328;9.514;2022-10-30T16:00:26;23.60;96.60
36424;DHT22;22458;45.328;9.514;2022-10-30T16:03:01;23.50;96.80
36424;DHT22;22458;45.328;9.514;2022-10-30T16:05:28;23.40;96.90
36424;DHT22;22458;45.328;9.514;2022-10-30T16:07:56;23.30;97.00
36424;DHT22;22458;45.328;9.514;2022-10-30T16:10:24;23.30;97.00
36424;DHT22;22458;45.328;9.514;2022-10-30T16:12:51;23.20;97.00
36424;DHT22;22458;45.328;9.514;2022-10-30T16:15:30;23.10;97.20
36424;DHT22;22458;45.328;9.514;2022-10-30T16:20:28;23.00;97.40
36424;DHT22;22458;45.328;9.514;2022-10-30T16:22:54;22.90;97.50
36424;DHT22;22458;45.328;9.514;2022-10-30T16:25:21;22.90;97.50
36424;DHT22;22458;45.328;9.514;2022-10-30T16:27:46;22.80;97.50
36424;DHT22;22458;45.328;9.514;2022-10-30T16:30:13;22.80;97.60
36424;DHT22;22458;45.328;9.514;2022-10-30T16:32:45;22.70;97.70
36424;DHT22;22458;45.328;9.514;2022-10-30T16:35:18;22.60;97.80
36424;DHT22;22458;45.328;9.514;2022-10-30T16:37:45;22.60;97.80
36424;DHT22;22458;45.328;9.514;2022-10-30T16:40:19;22.50;97.90
36424;DHT22;22458;45.328;9.514;2022-10-30T16:43:00;22.50;97.90
36424;DHT22;22458;45.328;9.514;2022-10-30T16:48:01;22.30;98.00
36424;DHT22;22458;45.328;9.514;2022-10-30T16:50:36;22.30;98.20
36424;DHT22;22458;45.328;9.514;2022-10-30T16:53:06;22.20;98.30
36424;DHT22;22458;45.328;9.514;2022-10-30T16:55:36;22.10;98.30
36424;DHT22;22458;45.328;9.514;2022-10-30T16:58:03;22.00;98.40
36424;DHT22;22458;45.328;9.514;2022-10-30T17:00:28;22.00;98.50
36424;DHT22;22458;45.328;9.514;2022-10-30T17:02:56;22.00;98.50
36424;DHT22;22458;45.328;9.514;2022-10-30T17:05:27;21.90;98.70
36424;DHT22;22458;45.328;9.514;2022-10-30T17:08:05;21.80;98.70
36424;DHT22;22458;45.328;9.514;2022-10-30T17:10:42;21.80;98.70
36424;DHT22;22458;45.328;9.514;2022-10-30T17:16:27;21.70;98.80
36424;DHT22;22458;45.328;9.514;2022-10-30T17:18:55;21.50;98.90
36424;DHT22;22458;45.328;9.514;2022-10-30T17:21:36;21.50;98.90
36424;DHT22;22458;45.328;9.514;2022-10-30T17:24:03;21.40;98.90
36424;DHT22;22458;45.328;9.514;2022-10-30T17:26:34;21.40;99.00
36424;DHT22;22458;45.328;9.514;2022-10-30T17:29:01;21.40;80.10
36424;DHT22;22458;45.328;9.514;2022-10-30T17:34:10;21.30;80.60
36424;DHT22;22458;45.328;9.514;2022-10-30T17:36:36;21.20;80.70
36424;DHT22;22458;45.328;9.514;2022-10-30T17:39:02;21.10;80.80
36424;DHT22;22458;45.328;9.514;2022-10-30T17:41:28;21.10;80.90
36424;DHT22;22458;45.328;9.514;2022-10-30T17:43:55;21.00;81.00
36424;DHT22;22458;45.328;9.514;2022-10-30T17:46:22;21.00;81.20
36424;DHT22;22458;45.328;9.514;2022-10-30T17:48:49;21.00;81.30
36424;DHT22;22458;45.328;9.514;2022-10-30T17:51:16;20.90;81.50
36424;DHT22;22458;45.328;9.514;2022-10-30T17:53:42;20.90;81.60
36424;DHT22;22458;45.328;9.514;2022-10-30T17:56:28;20.90;81.70
36424;DHT22;22458;45.328;9.514;2022-10-30T17:58:55;20.80;82.20
36424;DHT22;22458;45.328;9.514;2022-10-30T18:01:23;20.70;81.90
36424;DHT22;22458;45.328;9.514;2022-10-30T18:03:51;20.70;81.90
36424;DHT22;22458;45.328;9.514;2022-10-30T18:06:21;20.70;81.90
36424;DHT22;22458;45.328;9.514;2022-10-30T18:08:47;20.60;81.90
36424;DHT22;22458;45.328;9.514;2022-10-30T18:11:15;20.60;82.10
36424;DHT22;22458;45.328;9.514;2022-10-30T18:13:41;20.50;82.40
36424;DHT22;22458;45.328;9.514;2022-10-30T18:16:11;20.40;82.60
36424;DHT22;22458;45.328;9.514;2022-10-30T18:18:39;20.40;82.60